createdAt,value
2023-02-18T00:01:27.474Z,17.13
2023-02-18T00:03:54.790Z,28.92
2023-02-18T00:06:28.021Z,19.05
2023-02-18T00:08:58.942Z,20.33
2023-02-18T00:11:26.248Z,19.33
2023-02-18T00:13:56.170Z,24.60
2023-02-18T00:16:24.587Z,17.10
2023-02-18T00:18:58.033Z,24.52
2023-02-18T00:21:25.413Z,20.88
2023-02-18T00:23:52.667Z,17.35
2023-02-18T00:26:20.343Z,17.25
2023-02-18T00:28:54.493Z,18.45
2023-02-18T00:31:30.200Z,18.92
2023-02-18T00:36:26.303Z,19.02
2023-02-18T00:38:56.065Z,18.20
2023-02-18T00:41:25.107Z,18.40
2023-02-18T00:43:52.620Z,16.65
2023-02-18T00:46:20.668Z,17.08
2023-02-18T00:48:47.976Z,21.95
2023-02-18T00:51:15.274Z,16.08
2023-02-18T00:53:42.611Z,19.50
2023-02-18T00:56:10.311Z,22.00
2023-02-18T00:58:37.687Z,17.80
2023-02-18T01:01:07.542Z,21.08
2023-02-18T01:03:36.349Z,16.48
2023-02-18T01:06:04.585Z,24.33
2023-02-18T01:08:31.958Z,15.95
2023-02-18T01:10:59.973Z,15.48
2023-02-18T01:13:28.521Z,24.83
2023-02-18T01:15:55.950Z,19.40
2023-02-18T01:18:24.388Z,18.75
2023-02-18T01:20:51.818Z,25.25
2023-02-18T01:23:19.116Z,23.00
2023-02-18T01:25:46.780Z,16.63
2023-02-18T01:28:14.816Z,19.67
2023-02-18T01:30:42.258Z,12.57
2023-02-18T01:33:09.881Z,14.70
2023-02-18T01:35:40.857Z,27.85
2023-02-18T01:38:08.389Z,19.40
2023-02-18T01:40:36.101Z,24.17
2023-02-18T01:43:03.560Z,19.33
2023-02-18T01:45:33.742Z,17.73
2023-02-18T01:48:20.543Z,18.58
2023-02-18T01:50:57.575Z,21.73
2023-02-18T01:54:05.032Z,26.55
2023-02-18T01:56:36.303Z,18.63
2023-02-18T01:59:07.570Z,25.65
2023-02-18T02:01:35.067Z,19.80
2023-02-18T02:04:02.632Z,16.88
2023-02-18T02:06:29.829Z,15.18
2023-02-18T02:09:00.265Z,15.05
2023-02-18T02:11:41.582Z,18.02
2023-02-18T02:14:11.851Z,23.42
2023-02-18T02:16:59.001Z,16.25
2023-02-18T02:19:32.317Z,16.92
2023-02-18T02:22:44.369Z,15.93
2023-02-18T02:25:46.652Z,25.02
2023-02-18T02:28:38.511Z,19.98
2023-02-18T02:31:47.078Z,13.68
2023-02-18T02:34:29.599Z,20.38
2023-02-18T02:37:01.402Z,23.30
2023-02-18T02:39:43.951Z,16.10
2023-02-18T02:42:41.245Z,17.20
2023-02-18T02:45:19.821Z,19.23
2023-02-18T02:48:09.650Z,26.40
2023-02-18T02:51:01.916Z,19.05
2023-02-18T02:53:31.748Z,18.20
2023-02-18T02:55:58.914Z,18.33
2023-02-18T02:58:26.142Z,19.02
2023-02-18T03:01:08.393Z,18.30
2023-02-18T03:04:05.874Z,15.40
2023-02-18T03:06:57.976Z,21.92
2023-02-18T03:09:32.708Z,19.95
2023-02-18T03:12:34.206Z,13.75
2023-02-18T03:15:15.970Z,18.17
2023-02-18T03:17:58.631Z,24.05
2023-02-18T03:20:29.633Z,21.00
2023-02-18T03:22:58.704Z,15.98
2023-02-18T03:25:26.156Z,19.73
2023-02-18T03:27:58.215Z,17.60
2023-02-18T03:30:37.265Z,16.52
2023-02-18T03:33:06.225Z,17.92
2023-02-18T03:35:36.326Z,14.98
2023-02-18T03:38:14.692Z,17.02
2023-02-18T03:40:41.984Z,19.33
2023-02-18T03:43:09.369Z,15.65
2023-02-18T03:45:36.717Z,10.60
2023-02-18T03:48:04.275Z,14.27
2023-02-18T03:50:31.691Z,18.23
2023-02-18T03:52:58.954Z,20.88
2023-02-18T03:55:26.196Z,16.77
2023-02-18T03:57:53.429Z,13.00
2023-02-18T04:00:21.194Z,17.42
2023-02-18T04:02:48.568Z,14.48
2023-02-18T04:05:15.991Z,11.38
2023-02-18T04:07:43.168Z,20.77
2023-02-18T04:10:11.092Z,16.33
2023-02-18T04:12:38.417Z,7.22
2023-02-18T04:15:06.165Z,11.88
2023-02-18T04:17:34.269Z,13.98
2023-02-18T04:20:01.774Z,20.63
2023-02-18T04:22:28.958Z,17.23
2023-02-18T04:24:56.241Z,9.98
2023-02-18T04:27:23.621Z,12.07
2023-02-18T04:29:51.004Z,16.98
2023-02-18T04:32:18.236Z,11.52
2023-02-18T04:34:45.549Z,7.90
2023-02-18T04:37:12.777Z,17.30
2023-02-18T04:39:40.078Z,16.10
2023-02-18T04:42:09.098Z,11.90
2023-02-18T04:44:37.510Z,14.27
2023-02-18T04:47:06.064Z,14.38
2023-02-18T04:49:33.507Z,14.80
2023-02-18T04:52:00.778Z,17.45
2023-02-18T04:54:27.990Z,8.25
2023-02-18T04:56:55.334Z,9.32
2023-02-18T04:59:22.603Z,19.48
2023-02-18T05:01:49.915Z,16.38
2023-02-18T05:04:20.007Z,8.38
2023-02-18T05:06:47.386Z,12.63
2023-02-18T05:09:14.823Z,13.73
2023-02-18T05:11:42.354Z,19.00
2023-02-18T05:14:09.659Z,17.05
2023-02-18T05:16:36.999Z,12.48
2023-02-18T05:19:04.329Z,14.13
2023-02-18T05:21:31.790Z,14.45
2023-02-18T05:23:59.093Z,16.98
2023-02-18T05:26:26.416Z,10.88
2023-02-18T05:28:53.607Z,9.88
2023-02-18T05:31:20.905Z,13.73
2023-02-18T05:33:48.278Z,14.45
2023-02-18T05:36:15.704Z,13.65
2023-02-18T05:38:42.880Z,10.68
2023-02-18T05:41:10.126Z,5.47
2023-02-18T05:43:57.374Z,12.25
2023-02-18T05:46:24.706Z,14.68
2023-02-18T05:48:52.020Z,20.80
2023-02-18T05:51:19.219Z,12.77
2023-02-18T05:53:47.537Z,14.68
2023-02-18T05:56:14.761Z,13.63
2023-02-18T05:58:41.970Z,13.13
2023-02-18T06:01:09.260Z,15.15
2023-02-18T06:03:36.608Z,11.27
2023-02-18T06:06:04.004Z,17.13
2023-02-18T06:08:31.268Z,13.35
2023-02-18T06:10:58.567Z,14.07
2023-02-18T06:13:25.844Z,9.27
2023-02-18T06:15:53.948Z,7.20
2023-02-18T06:18:21.932Z,14.27
2023-02-18T06:20:49.715Z,9.25
2023-02-18T06:23:16.933Z,9.98
2023-02-18T06:25:44.240Z,12.27
2023-02-18T06:28:11.530Z,11.57
2023-02-18T06:30:38.842Z,12.90
2023-02-18T06:33:06.256Z,14.40
2023-02-18T06:35:33.643Z,10.07
2023-02-18T06:38:01.074Z,8.05
2023-02-18T06:40:28.766Z,10.05
2023-02-18T06:42:56.025Z,8.77
2023-02-18T06:45:23.306Z,12.68
2023-02-18T06:47:50.544Z,12.15
2023-02-18T06:50:19.577Z,11.15
2023-02-18T06:52:46.865Z,8.93
2023-02-18T06:55:14.092Z,9.02
2023-02-18T06:57:43.605Z,11.82
2023-02-18T07:00:11.134Z,11.30
2023-02-18T07:02:38.329Z,10.63
2023-02-18T07:05:06.339Z,7.63
2023-02-18T07:07:33.590Z,7.40
2023-02-18T07:10:01.090Z,12.85
2023-02-18T07:12:28.498Z,8.32
2023-02-18T07:14:55.774Z,10.20
2023-02-18T07:17:23.094Z,9.15
2023-02-18T07:19:50.410Z,11.02
2023-02-18T07:22:17.747Z,11.60
2023-02-18T07:24:45.057Z,11.80
2023-02-18T07:27:12.292Z,6.82
2023-02-18T07:29:39.520Z,7.65
2023-02-18T07:32:07.098Z,9.38
2023-02-18T07:34:34.329Z,3.20
2023-02-18T07:37:01.518Z,9.20
2023-02-18T07:39:28.800Z,6.65
2023-02-18T07:41:55.967Z,6.13
2023-02-18T07:44:23.227Z,8.45
2023-02-18T07:46:50.448Z,9.18
2023-02-18T07:49:17.604Z,12.00
2023-02-18T07:51:47.637Z,5.35
2023-02-18T07:54:15.045Z,9.75
2023-02-18T07:56:43.169Z,12.68
2023-02-18T07:59:10.870Z,7.88
2023-02-18T08:01:38.210Z,4.10
2023-02-18T08:04:05.668Z,6.03
2023-02-18T08:06:40.362Z,6.50
2023-02-18T08:09:08.201Z,7.65
2023-02-18T08:11:35.815Z,9.85
2023-02-18T08:14:03.260Z,9.20
2023-02-18T08:16:30.655Z,8.77
2023-02-18T08:18:58.281Z,4.35
2023-02-18T08:21:26.031Z,7.13
2023-02-18T08:23:53.776Z,6.78
2023-02-18T08:26:21.383Z,7.82
2023-02-18T08:28:48.624Z,10.38
2023-02-18T08:31:21.706Z,11.27
2023-02-18T08:33:49.779Z,7.35
2023-02-18T08:36:17.080Z,2.90
2023-02-18T08:38:44.467Z,7.20
2023-02-18T08:41:11.968Z,8.02
2023-02-18T08:43:39.226Z,7.70
2023-02-18T08:46:06.689Z,6.00
2023-02-18T08:48:34.108Z,10.63
2023-02-18T08:51:13.522Z,5.05
2023-02-18T08:53:40.863Z,7.57
2023-02-18T08:56:09.671Z,9.90
2023-02-18T08:58:37.598Z,9.02
2023-02-18T09:01:07.064Z,7.15
2023-02-18T09:03:35.161Z,5.70
2023-02-18T09:06:02.566Z,7.20
2023-02-18T09:08:30.064Z,12.32
2023-02-18T09:10:58.659Z,4.18
2023-02-18T09:13:27.505Z,8.35
2023-02-18T09:16:03.569Z,6.18
2023-02-18T09:18:31.945Z,7.35
2023-02-18T09:21:00.365Z,9.85
2023-02-18T09:23:29.644Z,7.03
2023-02-18T09:25:57.163Z,3.08
2023-02-18T09:28:24.966Z,10.38
2023-02-18T09:30:52.613Z,13.82
2023-02-18T09:33:19.882Z,11.20
2023-02-18T09:35:47.578Z,8.52
2023-02-18T09:38:17.404Z,7.47
2023-02-18T09:40:48.849Z,11.65
2023-02-18T09:43:34.367Z,10.10
2023-02-18T09:46:03.130Z,15.93
2023-02-18T09:48:36.252Z,10.98
2023-02-18T09:51:03.555Z,8.95
2023-02-18T09:53:30.828Z,10.38
2023-02-18T09:55:58.553Z,14.50
2023-02-18T09:58:31.813Z,14.77
2023-02-18T10:01:22.341Z,10.20
2023-02-18T10:03:51.527Z,8.93
2023-02-18T10:06:26.717Z,14.40
2023-02-18T10:08:54.563Z,10.82
2023-02-18T10:11:35.727Z,10.57
2023-02-18T10:14:04.145Z,10.63
2023-02-18T10:16:31.446Z,7.85
2023-02-18T10:19:01.751Z,9.90
2023-02-18T10:21:32.962Z,9.95
2023-02-18T10:24:07.355Z,12.68
2023-02-18T10:26:36.053Z,14.38
2023-02-18T10:29:03.554Z,15.48
2023-02-18T10:31:36.022Z,10.82
2023-02-18T10:34:28.577Z,10.68
2023-02-18T10:37:00.840Z,9.15
2023-02-18T10:39:40.081Z,13.65
2023-02-18T10:42:20.721Z,12.70
2023-02-18T10:45:06.279Z,14.50
2023-02-18T10:47:39.360Z,11.98
2023-02-18T10:50:30.101Z,10.63
2023-02-18T10:53:01.343Z,14.25
2023-02-18T10:55:43.422Z,11.68
2023-02-18T10:58:44.931Z,13.93
2023-02-18T11:01:20.187Z,10.32
2023-02-18T11:03:48.829Z,9.23
2023-02-18T11:06:31.842Z,14.82
2023-02-18T11:08:59.621Z,11.23
2023-02-18T11:11:32.614Z,6.82
2023-02-18T11:14:01.731Z,11.15
2023-02-18T11:16:46.780Z,7.75
2023-02-18T11:19:37.105Z,10.77
2023-02-18T11:22:13.781Z,8.50
2023-02-18T11:24:41.611Z,10.55
2023-02-18T11:27:12.094Z,7.35
2023-02-18T11:29:40.914Z,6.75
2023-02-18T11:32:11.488Z,6.85
2023-02-18T11:34:43.083Z,7.38
2023-02-18T11:37:13.192Z,9.15
2023-02-18T11:39:44.684Z,5.70
2023-02-18T11:42:17.626Z,5.65
2023-02-18T11:44:59.258Z,12.90
2023-02-18T11:47:35.179Z,6.80
2023-02-18T11:50:09.760Z,5.40
2023-02-18T11:55:12.251Z,4.18
2023-02-18T11:57:42.721Z,4.68
2023-02-18T12:00:23.455Z,4.78
2023-02-18T12:02:52.824Z,7.75
2023-02-18T12:05:24.691Z,10.30
2023-02-18T12:08:11.076Z,6.05
2023-02-18T12:10:45.045Z,3.97
2023-02-18T12:13:32.556Z,6.07
2023-02-18T12:16:11.939Z,4.68
2023-02-18T12:19:07.408Z,6.15
2023-02-18T12:21:50.157Z,2.95
2023-02-18T12:24:49.857Z,4.22
2023-02-18T12:27:24.525Z,3.10
2023-02-18T12:30:10.841Z,4.40
2023-02-18T12:32:56.905Z,4.57
2023-02-18T12:35:42.857Z,5.28
2023-02-18T12:38:28.783Z,3.83
2023-02-18T12:41:04.799Z,4.60
2023-02-18T12:44:01.048Z,4.45
2023-02-18T12:46:49.786Z,4.40
2023-02-18T12:49:32.892Z,3.72
2023-02-18T12:52:09.983Z,5.68
2023-02-18T12:55:20.685Z,6.10
2023-02-18T12:57:54.001Z,5.22
2023-02-18T13:00:26.079Z,4.57
2023-02-18T13:03:11.808Z,4.65
2023-02-18T13:06:03.118Z,4.88
2023-02-18T13:08:55.862Z,4.05
2023-02-18T13:11:55.744Z,5.07
2023-02-18T13:14:31.307Z,5.05
2023-02-18T13:20:26.369Z,4.75
2023-02-18T13:23:07.543Z,4.60
2023-02-18T13:25:38.081Z,3.40
2023-02-18T13:28:18.514Z,6.63
2023-02-18T13:30:53.966Z,3.53
2023-02-18T13:33:36.592Z,2.65
2023-02-18T13:36:18.127Z,4.15
2023-02-18T13:39:05.418Z,3.13
2023-02-18T13:41:41.546Z,2.78
2023-02-18T13:44:28.854Z,4.32
2023-02-18T13:46:57.930Z,2.40
2023-02-18T13:49:34.677Z,4.63
2023-02-18T13:52:02.519Z,2.25
2023-02-18T13:54:38.669Z,1.20
2023-02-18T13:57:14.882Z,1.70
2023-02-18T13:59:47.123Z,1.50
2023-02-18T14:02:20.847Z,2.40
2023-02-18T14:05:08.381Z,3.20
2023-02-18T14:07:41.646Z,5.18
2023-02-18T14:10:20.834Z,1.50
2023-02-18T14:12:57.415Z,1.90
2023-02-18T14:15:26.619Z,1.63
2023-02-18T14:18:03.438Z,2.05
2023-02-18T14:20:38.312Z,1.63
2023-02-18T14:23:22.693Z,2.75
2023-02-18T14:25:53.578Z,1.85
2023-02-18T14:28:46.176Z,2.28
2023-02-18T14:31:13.766Z,1.50
2023-02-18T14:33:47.023Z,1.20
2023-02-18T14:36:23.295Z,2.00
2023-02-18T14:39:32.369Z,2.00
2023-02-18T14:42:18.061Z,3.90
2023-02-18T14:44:48.077Z,1.58
2023-02-18T14:47:27.513Z,2.17
2023-02-18T14:49:59.757Z,1.25
2023-02-18T14:52:31.038Z,1.67
2023-02-18T14:55:02.365Z,2.45
2023-02-18T14:57:35.823Z,1.77
2023-02-18T15:00:05.240Z,1.65
2023-02-18T15:02:36.382Z,2.22
2023-02-18T15:05:30.017Z,2.10
2023-02-18T15:08:08.856Z,1.85
2023-02-18T15:10:45.012Z,6.35
2023-02-18T15:13:26.878Z,4.18
2023-02-18T15:15:57.173Z,3.97
2023-02-18T15:18:37.179Z,3.53
2023-02-18T15:21:21.085Z,2.00
2023-02-18T15:23:48.688Z,1.88
2023-02-18T15:26:16.586Z,1.98
2023-02-18T15:29:19.753Z,1.90
2023-02-18T15:31:48.439Z,1.15
2023-02-18T15:34:37.113Z,1.17
2023-02-18T15:37:07.250Z,3.38
2023-02-18T15:39:38.510Z,1.55
2023-02-18T15:42:26.446Z,1.55
2023-02-18T15:44:57.934Z,1.60
2023-02-18T15:47:25.449Z,1.40
2023-02-18T15:49:55.100Z,1.08
2023-02-18T15:52:32.622Z,1.25
2023-02-18T15:55:43.322Z,0.68
2023-02-18T15:58:33.412Z,1.45
2023-02-18T16:01:02.963Z,1.23
2023-02-18T16:03:39.230Z,2.38
2023-02-18T16:06:19.075Z,0.73
2023-02-18T16:09:00.938Z,1.92
2023-02-18T16:11:32.820Z,0.95
2023-02-18T16:14:00.296Z,0.65
2023-02-18T16:16:35.578Z,1.58
2023-02-18T16:19:04.203Z,1.98
2023-02-18T16:21:44.941Z,1.30
2023-02-18T16:24:27.754Z,4.03
2023-02-18T16:26:57.881Z,0.70
2023-02-18T16:29:42.128Z,0.60
2023-02-18T16:32:10.820Z,3.42
2023-02-18T16:34:38.312Z,1.75
2023-02-18T16:37:24.608Z,1.60
2023-02-18T16:42:28.628Z,2.60
2023-02-18T16:44:55.854Z,2.53
2023-02-18T16:47:23.143Z,3.03
2023-02-18T16:49:51.239Z,1.25
2023-02-18T16:52:20.115Z,1.83
2023-02-18T16:54:50.464Z,1.90
2023-02-18T16:57:18.384Z,1.73
2023-02-18T16:59:46.551Z,3.63
2023-02-18T17:02:19.963Z,1.45
2023-02-18T17:04:47.227Z,1.65
2023-02-18T17:07:18.095Z,1.55
2023-02-18T17:09:45.737Z,2.30
2023-02-18T17:12:13.964Z,1.85
2023-02-18T17:14:41.224Z,2.25
2023-02-18T17:17:13.860Z,1.27
2023-02-18T17:19:46.848Z,2.38
2023-02-18T17:22:18.150Z,1.20
2023-02-18T17:24:45.938Z,1.48
2023-02-18T17:27:13.204Z,1.90
2023-02-18T17:29:41.179Z,1.33
2023-02-18T17:32:13.054Z,1.60
2023-02-18T17:34:41.188Z,1.40
2023-02-18T17:37:46.174Z,1.88
2023-02-18T17:40:37.470Z,1.50
2023-02-18T17:43:04.691Z,2.45
2023-02-18T17:45:37.432Z,3.63
2023-02-18T17:48:04.770Z,3.00
2023-02-18T17:50:32.262Z,2.03
2023-02-18T17:52:59.510Z,3.45
2023-02-18T17:55:35.629Z,2.55
2023-02-18T17:58:03.150Z,2.75
2023-02-18T18:00:36.806Z,2.08
2023-02-18T18:03:04.316Z,1.40
2023-02-18T18:05:36.313Z,3.63
2023-02-18T18:08:07.678Z,4.13
2023-02-18T18:10:40.040Z,2.60
2023-02-18T18:13:17.532Z,3.30
2023-02-18T18:15:45.312Z,1.88
2023-02-18T18:18:14.430Z,3.55
2023-02-18T18:20:45.440Z,2.42
2023-02-18T18:23:15.385Z,2.10
2023-02-18T18:25:47.312Z,1.98
2023-02-18T18:28:14.926Z,1.95
2023-02-18T18:30:52.504Z,2.28
2023-02-18T18:33:36.495Z,3.47
2023-02-18T18:36:04.014Z,1.98
2023-02-18T18:38:31.183Z,2.38
2023-02-18T18:40:58.429Z,1.52
2023-02-18T18:43:28.797Z,2.13
2023-02-18T18:45:57.406Z,2.13
2023-02-18T18:48:25.037Z,2.17
2023-02-18T18:50:53.484Z,1.65
2023-02-18T18:53:29.919Z,1.35
2023-02-18T18:56:01.888Z,2.72
2023-02-18T18:58:29.135Z,2.60
2023-02-18T19:00:59.273Z,2.55
2023-02-18T19:03:27.934Z,2.45
2023-02-18T19:05:55.953Z,4.45
2023-02-18T19:08:26.425Z,2.10
2023-02-18T19:10:56.992Z,2.88
2023-02-18T19:13:32.275Z,2.92
2023-02-18T19:16:21.296Z,1.70
2023-02-18T19:18:48.996Z,3.70
2023-02-18T19:21:16.781Z,2.85
2023-02-18T19:23:44.287Z,1.80
2023-02-18T19:26:12.799Z,2.35
2023-02-18T19:28:39.967Z,2.28
2023-02-18T19:31:11.403Z,2.85
2023-02-18T19:33:39.553Z,1.50
2023-02-18T19:36:08.922Z,2.60
2023-02-18T19:38:39.511Z,2.60
2023-02-18T19:41:14.677Z,2.35
2023-02-18T19:43:43.970Z,3.10
2023-02-18T19:46:16.776Z,3.70
2023-02-18T19:48:49.621Z,4.95
2023-02-18T19:51:17.122Z,3.22
2023-02-18T19:53:44.585Z,2.45
2023-02-18T19:56:12.068Z,2.20
2023-02-18T19:58:42.204Z,3.08
2023-02-18T20:01:17.283Z,1.75
2023-02-18T20:03:44.979Z,1.90
2023-02-18T20:06:19.855Z,1.35
2023-02-18T20:08:47.432Z,2.33
2023-02-18T20:11:14.878Z,1.90
2023-02-18T20:13:42.358Z,1.60
2023-02-18T20:16:10.486Z,2.28
2023-02-18T20:18:37.714Z,2.42
2023-02-18T20:21:05.280Z,2.72
2023-02-18T20:23:32.535Z,2.90
2023-02-18T20:26:04.065Z,3.50
2023-02-18T20:28:31.187Z,2.70
2023-02-18T20:31:09.973Z,3.03
2023-02-18T20:33:38.463Z,2.55
2023-02-18T20:36:08.598Z,2.60
2023-02-18T20:38:40.042Z,2.90
2023-02-18T20:41:09.926Z,2.50
2023-02-18T20:43:37.707Z,2.10
2023-02-18T20:46:07.366Z,3.90
2023-02-18T20:48:35.310Z,2.42
2023-02-18T20:51:11.182Z,4.75
2023-02-18T20:53:40.897Z,2.63
2023-02-18T20:56:09.064Z,4.18
2023-02-18T20:58:36.700Z,2.75
2023-02-18T21:01:11.531Z,3.22
2023-02-18T21:03:39.165Z,5.10
2023-02-18T21:06:11.330Z,4.47
2023-02-18T21:08:40.614Z,3.72
2023-02-18T21:11:10.395Z,3.45
2023-02-18T21:13:37.947Z,3.17
2023-02-18T21:16:08.188Z,4.40
2023-02-18T21:18:38.034Z,4.75
2023-02-18T21:21:08.481Z,3.47
2023-02-18T21:23:36.151Z,3.08
2023-02-18T21:26:10.401Z,3.95
2023-02-18T21:28:38.414Z,3.33
2023-02-18T21:31:21.526Z,2.63
2023-02-18T21:33:50.659Z,6.05
2023-02-18T21:36:18.272Z,4.22
2023-02-18T21:38:47.361Z,3.65
2023-02-18T21:41:14.566Z,3.38
2023-02-18T21:43:44.729Z,3.67
2023-02-18T21:46:20.396Z,3.60
2023-02-18T21:51:50.156Z,2.90
2023-02-18T21:54:22.675Z,3.55
2023-02-18T21:56:50.209Z,3.13
2023-02-18T21:59:18.017Z,3.05
2023-02-18T22:01:45.183Z,3.05
2023-02-18T22:04:12.719Z,3.53
2023-02-18T22:06:39.934Z,4.15
2023-02-18T22:09:07.118Z,2.92
2023-02-18T22:11:34.786Z,3.42
2023-02-18T22:14:02.802Z,2.58
2023-02-18T22:16:30.074Z,2.97
2023-02-18T22:18:57.663Z,3.33
2023-02-18T22:21:24.865Z,2.58
2023-02-18T22:23:52.131Z,4.38
2023-02-18T22:26:19.615Z,5.30
2023-02-18T22:28:57.742Z,3.15
2023-02-18T22:31:27.424Z,2.60
2023-02-18T22:33:55.811Z,3.28
2023-02-18T22:36:24.498Z,4.70
2023-02-18T22:38:52.168Z,2.70
2023-02-18T22:41:20.780Z,3.55
2023-02-18T22:43:48.155Z,2.58
2023-02-18T22:46:18.927Z,2.80
2023-02-18T22:48:46.129Z,3.10
2023-02-18T22:51:25.056Z,3.95
2023-02-18T22:53:53.508Z,2.15
2023-02-18T22:56:21.653Z,3.03
2023-02-18T22:58:50.169Z,2.75
2023-02-18T23:01:28.708Z,2.20
2023-02-18T23:03:57.934Z,2.92
2023-02-18T23:06:25.522Z,2.33
2023-02-18T23:08:54.098Z,2.45
2023-02-18T23:11:21.330Z,3.22
2023-02-18T23:14:07.790Z,2.22
2023-02-18T23:16:56.625Z,3.25
2023-02-18T23:19:25.094Z,3.08
2023-02-18T23:21:52.393Z,2.60
2023-02-18T23:24:45.500Z,4.13
2023-02-18T23:27:14.869Z,5.38
2023-02-18T23:29:41.981Z,2.08
2023-02-18T23:32:09.927Z,2.30
2023-02-18T23:34:38.108Z,4.07
2023-02-18T23:37:05.369Z,3.60
2023-02-18T23:39:33.252Z,4.80
2023-02-18T23:42:00.566Z,2.88
2023-02-18T23:44:28.149Z,3.22
2023-02-18T23:46:55.396Z,3.55
2023-02-18T23:49:26.518Z,5.10
2023-02-18T23:51:55.884Z,2.33
2023-02-18T23:54:23.375Z,9.15
2023-02-18T23:56:50.683Z,4.43
2023-02-18T23:59:18.108Z,7.07
